createdAt,value
2022-12-18T09:08:44.422Z,45
2022-12-18T09:11:01.702Z,48
2022-12-18T09:13:28.351Z,56
2022-12-18T09:15:56.556Z,56
2022-12-18T09:18:24.712Z,68
2022-12-18T09:20:53.208Z,64
2022-12-18T09:23:22.650Z,60
2022-12-18T09:25:51.931Z,63
2022-12-18T09:28:21.026Z,77
2022-12-18T09:30:50.475Z,63
2022-12-18T09:33:19.421Z,68
2022-12-18T09:35:48.619Z,69
2022-12-18T09:38:18.160Z,67
2022-12-18T09:40:46.962Z,62
2022-12-18T09:43:16.242Z,62
2022-12-18T09:45:45.898Z,68
2022-12-18T09:48:14.818Z,64
2022-12-18T09:50:44.266Z,69
2022-12-18T09:53:13.138Z,66
2022-12-18T09:55:42.387Z,68
2022-12-18T09:58:11.669Z,64
2022-12-18T10:00:40.521Z,66
2022-12-18T10:03:10.325Z,67
2022-12-18T10:05:39.342Z,68
2022-12-18T10:08:08.403Z,72
2022-12-18T10:10:37.392Z,71
2022-12-18T10:13:06.828Z,68
2022-12-18T10:15:36.168Z,70
2022-12-18T10:18:05.474Z,72
2022-12-18T10:20:34.850Z,68
2022-12-18T10:23:04.968Z,66
2022-12-18T10:25:34.230Z,66
2022-12-18T10:28:03.416Z,62
2022-12-18T10:30:32.480Z,68
2022-12-18T10:33:02.391Z,63
2022-12-18T10:35:31.570Z,66
2022-12-18T10:38:00.992Z,64
2022-12-18T10:40:29.900Z,64
2022-12-18T10:42:59.263Z,63
2022-12-18T10:45:29.507Z,64
2022-12-18T10:47:58.514Z,68
2022-12-18T10:50:40.908Z,68
2022-12-18T10:52:57.898Z,65
2022-12-18T10:55:28.242Z,68
2022-12-18T10:58:01.731Z,63
2022-12-18T11:00:32.729Z,68
2022-12-18T11:03:01.788Z,66
2022-12-18T11:05:37.942Z,64
2022-12-18T11:08:06.435Z,65
2022-12-18T11:10:36.532Z,66
2022-12-18T11:13:05.223Z,68
2022-12-18T11:15:34.711Z,68
2022-12-18T11:18:03.141Z,74
2022-12-18T11:20:32.866Z,63
2022-12-18T11:23:02.056Z,66
2022-12-18T11:25:32.795Z,73
2022-12-18T11:27:59.655Z,68
2022-12-18T11:30:28.563Z,78
2022-12-18T11:32:57.576Z,84
2022-12-18T11:35:26.353Z,76
2022-12-18T11:37:55.453Z,65
2022-12-18T11:40:24.521Z,90
2022-12-18T11:42:53.509Z,68
2022-12-18T11:45:22.677Z,69
2022-12-18T11:47:51.332Z,72
2022-12-18T11:50:20.252Z,66
2022-12-18T11:52:54.395Z,68
2022-12-18T11:55:18.751Z,68
2022-12-18T11:57:47.951Z,68
2022-12-18T12:00:17.208Z,72
2022-12-18T12:02:46.846Z,71
2022-12-18T12:05:15.489Z,72
2022-12-18T12:07:44.772Z,72
2022-12-18T12:10:13.780Z,70
2022-12-18T12:12:47.987Z,70
2022-12-18T12:15:12.327Z,72
2022-12-18T12:17:41.490Z,69
2022-12-18T12:20:10.946Z,68
2022-12-18T12:22:39.899Z,71
2022-12-18T12:25:08.972Z,81
2022-12-18T12:27:38.023Z,82
2022-12-18T12:30:08.449Z,92
2022-12-18T12:32:35.897Z,78
2022-12-18T12:35:09.570Z,79
2022-12-18T12:37:34.457Z,74
2022-12-18T12:40:11.119Z,72
2022-12-18T12:42:32.600Z,75
2022-12-18T12:45:01.770Z,80
2022-12-18T12:47:30.746Z,69
2022-12-18T12:50:00.093Z,65
2022-12-18T12:52:29.912Z,70
2022-12-18T12:54:59.431Z,75
2022-12-18T12:57:28.765Z,73
2022-12-18T12:59:57.227Z,72
2022-12-18T13:02:26.396Z,84
2022-12-18T13:04:55.445Z,76
2022-12-18T13:07:24.664Z,74
2022-12-18T13:09:53.656Z,109
2022-12-18T13:12:22.853Z,70
2022-12-18T13:14:52.030Z,100
2022-12-18T13:17:21.071Z,85
2022-12-18T13:19:50.086Z,94
2022-12-18T13:22:19.063Z,129
2022-12-18T13:24:48.625Z,69
2022-12-18T13:27:17.274Z,68
2022-12-18T13:29:46.305Z,76
2022-12-18T13:32:19.666Z,89
2022-12-18T13:34:45.012Z,76
2022-12-18T13:37:14.947Z,73
2022-12-18T13:39:44.283Z,77
2022-12-18T13:42:13.410Z,77
2022-12-18T13:44:42.322Z,80
2022-12-18T13:47:11.668Z,73
2022-12-18T13:49:40.697Z,72
2022-12-18T13:52:10.206Z,86
2022-12-18T13:54:39.497Z,80
2022-12-18T13:57:08.069Z,76
2022-12-18T13:59:37.055Z,76
2022-12-18T14:02:06.002Z,80
2022-12-18T14:04:35.505Z,82
2022-12-18T14:07:04.469Z,89
2022-12-18T14:09:33.424Z,86
2022-12-18T14:12:02.112Z,77
2022-12-18T14:14:32.565Z,72
2022-12-18T14:17:00.487Z,74
2022-12-18T14:19:29.390Z,75
2022-12-18T14:21:58.571Z,79
2022-12-18T14:24:27.664Z,72
2022-12-18T14:26:56.480Z,72
2022-12-18T14:29:25.515Z,72
2022-12-18T14:31:55.430Z,91
2022-12-18T14:34:24.071Z,91
2022-12-18T14:36:53.344Z,76
2022-12-18T14:39:23.067Z,68
2022-12-18T14:41:52.518Z,93
2022-12-18T14:44:21.374Z,73
2022-12-18T14:46:50.853Z,73
2022-12-18T14:49:19.895Z,71
2022-12-18T14:51:49.657Z,72
2022-12-18T14:54:18.660Z,70
2022-12-18T14:56:47.892Z,83
2022-12-18T14:59:20.728Z,114
2022-12-18T15:01:45.799Z,72
2022-12-18T15:04:15.405Z,90
2022-12-18T15:06:44.828Z,102
2022-12-18T15:09:14.046Z,109
2022-12-18T15:11:43.425Z,145
2022-12-18T15:14:13.161Z,116
2022-12-18T15:16:46.065Z,85
2022-12-18T15:19:11.224Z,76
2022-12-18T15:21:40.360Z,93
2022-12-18T15:24:09.618Z,110
2022-12-18T15:26:38.710Z,121
2022-12-18T15:29:11.357Z,73
2022-12-18T15:31:37.340Z,84
2022-12-18T15:34:06.644Z,91
2022-12-18T15:36:35.614Z,84
2022-12-18T15:39:06.423Z,95
2022-12-18T15:41:33.732Z,69
2022-12-18T15:44:03.005Z,83
2022-12-18T15:46:32.603Z,71
2022-12-18T15:49:02.956Z,72
2022-12-18T15:51:30.681Z,74
2022-12-18T15:53:59.942Z,88
2022-12-18T15:56:29.037Z,95
2022-12-18T15:58:58.113Z,98
2022-12-18T16:01:27.635Z,83
2022-12-18T16:03:56.607Z,84
2022-12-18T16:06:26.318Z,84
2022-12-18T16:08:56.069Z,80
2022-12-18T16:11:25.164Z,70
2022-12-18T16:13:54.514Z,79
2022-12-18T16:16:23.694Z,87
2022-12-18T16:18:52.945Z,80
2022-12-18T16:21:22.079Z,76
2022-12-18T16:23:51.575Z,72
2022-12-18T16:26:20.089Z,83
2022-12-18T16:28:49.645Z,75
2022-12-18T16:31:18.398Z,76
2022-12-18T16:33:47.499Z,73
2022-12-18T16:36:16.700Z,72
2022-12-18T16:38:45.715Z,76
2022-12-18T16:41:15.365Z,79
2022-12-18T16:43:44.265Z,89
2022-12-18T16:46:13.889Z,79
2022-12-18T16:48:43.129Z,81
2022-12-18T16:51:12.477Z,82
2022-12-18T16:53:41.955Z,86
2022-12-18T16:56:10.425Z,84
2022-12-18T16:58:40.016Z,70
2022-12-18T17:01:09.392Z,80
2022-12-18T17:03:38.943Z,89
2022-12-18T17:06:07.732Z,92
2022-12-18T17:08:36.869Z,96
2022-12-18T17:11:06.024Z,112
2022-12-18T17:13:35.161Z,108
2022-12-18T17:16:04.515Z,106
2022-12-18T17:18:33.428Z,111
2022-12-18T17:21:02.562Z,110
2022-12-18T17:23:31.155Z,108
2022-12-18T17:26:00.115Z,117
2022-12-18T17:28:33.647Z,113
2022-12-18T17:31:03.687Z,122
2022-12-18T17:33:32.779Z,111
2022-12-18T17:36:01.531Z,109
2022-12-18T17:38:30.455Z,108
2022-12-18T17:40:59.406Z,88
2022-12-18T17:43:28.218Z,97
2022-12-18T17:45:56.830Z,86
2022-12-18T17:48:26.057Z,78
2022-12-18T17:50:55.490Z,87
2022-12-18T17:53:24.692Z,73
2022-12-18T17:55:54.142Z,77
2022-12-18T17:58:23.336Z,75
2022-12-18T18:00:52.259Z,74
2022-12-18T18:03:22.478Z,69
2022-12-18T18:05:52.537Z,66
2022-12-18T18:08:21.403Z,68
2022-12-18T18:10:50.742Z,69
2022-12-18T18:13:19.693Z,74
2022-12-18T18:15:49.602Z,78
2022-12-18T18:18:19.306Z,86
2022-12-18T18:20:48.838Z,85
2022-12-18T18:23:17.757Z,101
2022-12-18T18:25:46.927Z,86
2022-12-18T18:28:15.824Z,68
2022-12-18T18:30:44.449Z,71
2022-12-18T18:33:13.765Z,79
2022-12-18T18:35:53.615Z,75
2022-12-18T18:38:12.027Z,76
2022-12-18T18:40:41.062Z,86
2022-12-18T18:43:10.496Z,101
2022-12-18T18:45:39.182Z,83
2022-12-18T18:48:08.203Z,79
2022-12-18T18:50:37.758Z,72
2022-12-18T18:53:07.061Z,83
2022-12-18T18:55:36.152Z,94
2022-12-18T18:58:05.330Z,92
2022-12-18T19:00:34.780Z,99
2022-12-18T19:03:04.117Z,86
2022-12-18T19:05:32.619Z,84
2022-12-18T19:08:01.780Z,95
2022-12-18T19:10:30.876Z,84
2022-12-18T19:12:59.823Z,91
2022-12-18T19:15:28.861Z,84
2022-12-18T19:17:57.983Z,94
2022-12-18T19:20:26.834Z,98
2022-12-18T19:22:56.115Z,85
2022-12-18T19:25:28.335Z,85
2022-12-18T19:27:52.941Z,87
2022-12-18T19:30:21.810Z,94
2022-12-18T19:32:50.832Z,98
2022-12-18T19:35:20.240Z,108
2022-12-18T19:37:49.561Z,104
2022-12-18T19:40:18.499Z,99
2022-12-18T19:42:47.729Z,106
2022-12-18T19:45:16.184Z,112
2022-12-18T19:47:44.952Z,104
2022-12-18T19:50:14.146Z,107
2022-12-18T19:52:43.754Z,97
2022-12-18T19:55:12.194Z,98
2022-12-18T19:57:41.073Z,101
2022-12-18T20:00:14.112Z,116
2022-12-18T20:02:39.277Z,109
2022-12-18T20:05:07.875Z,111
2022-12-18T20:07:36.952Z,104
2022-12-18T20:10:09.028Z,109
2022-12-18T20:12:34.929Z,116
2022-12-18T20:15:04.334Z,138
2022-12-18T20:17:33.245Z,118
2022-12-18T20:20:02.384Z,112
2022-12-18T20:22:31.414Z,119
2022-12-18T20:25:00.694Z,110
2022-12-18T20:27:29.671Z,123
2022-12-18T20:29:58.595Z,113
2022-12-18T20:32:30.487Z,119
2022-12-18T20:34:57.599Z,123
2022-12-18T20:37:26.206Z,129
2022-12-18T20:39:55.660Z,127
2022-12-18T20:42:25.030Z,109
2022-12-18T20:44:54.674Z,127
2022-12-18T20:47:23.943Z,127
2022-12-18T20:49:53.004Z,127
2022-12-18T20:52:21.545Z,130
2022-12-18T20:54:50.333Z,133
2022-12-18T20:57:19.538Z,137
2022-12-18T20:59:48.775Z,128
2022-12-18T21:02:17.974Z,120
2022-12-18T21:04:46.957Z,123
2022-12-18T21:07:15.708Z,117
2022-12-18T21:09:44.894Z,123
2022-12-18T21:12:14.254Z,123
2022-12-18T21:14:42.882Z,123
2022-12-18T21:17:11.646Z,133
2022-12-18T21:19:41.239Z,126
2022-12-18T21:22:10.348Z,111
2022-12-18T21:24:39.683Z,119
2022-12-18T21:27:08.789Z,125
2022-12-18T21:29:37.704Z,119
2022-12-18T21:32:06.636Z,117
2022-12-18T21:34:35.834Z,120
2022-12-18T21:37:07.750Z,113
2022-12-18T21:39:36.699Z,126
2022-12-18T21:42:05.237Z,123
2022-12-18T21:44:35.757Z,122
2022-12-18T21:47:12.471Z,129
2022-12-18T21:49:32.433Z,108
2022-12-18T21:52:01.693Z,89
2022-12-18T21:54:30.904Z,109
2022-12-18T21:56:59.533Z,115
2022-12-18T21:59:28.636Z,112
2022-12-18T22:01:57.902Z,116
2022-12-18T22:04:26.634Z,103
2022-12-18T22:06:55.662Z,136
2022-12-18T22:09:24.751Z,119
2022-12-18T22:11:54.127Z,123
2022-12-18T22:14:22.669Z,111
2022-12-18T22:16:52.050Z,94
2022-12-18T22:19:21.180Z,104
2022-12-18T22:21:49.686Z,111
2022-12-18T22:24:18.896Z,94
2022-12-18T22:26:48.082Z,91
2022-12-18T22:29:17.225Z,74
2022-12-18T22:31:46.107Z,70
2022-12-18T22:34:15.158Z,90
2022-12-18T22:36:44.145Z,88
2022-12-18T22:39:13.414Z,84
2022-12-18T22:41:42.358Z,80
2022-12-18T22:44:11.724Z,85
2022-12-18T22:46:40.705Z,102
2022-12-18T22:49:09.816Z,102
2022-12-18T22:51:38.751Z,100
2022-12-18T22:54:07.930Z,100
2022-12-18T22:56:37.230Z,115
2022-12-18T22:59:06.320Z,109
2022-12-18T23:01:35.515Z,125
2022-12-18T23:04:04.572Z,114
2022-12-18T23:06:33.460Z,114
2022-12-18T23:09:02.605Z,120
2022-12-18T23:11:31.914Z,114
2022-12-18T23:14:00.468Z,128
2022-12-18T23:16:29.602Z,139
2022-12-18T23:18:58.765Z,129
2022-12-18T23:21:27.821Z,119
2022-12-18T23:23:56.748Z,127
2022-12-18T23:26:25.966Z,118
2022-12-18T23:28:55.002Z,126
2022-12-18T23:31:24.159Z,118
2022-12-18T23:33:53.764Z,118
2022-12-18T23:36:22.921Z,118
2022-12-18T23:38:52.421Z,113
2022-12-18T23:41:21.591Z,95
2022-12-18T23:43:50.537Z,100
2022-12-18T23:46:19.940Z,104
2022-12-18T23:48:49.492Z,116
2022-12-18T23:51:18.904Z,108
2022-12-18T23:53:48.177Z,97
2022-12-18T23:56:17.664Z,91
2022-12-18T23:58:47.837Z,100
